createdAt,value
2022-09-12T00:01:56.416Z,13.44
2022-09-12T00:04:58.396Z,13.43
2022-09-12T00:08:02.274Z,13.47
2022-09-12T00:11:07.024Z,13.51
2022-09-12T00:14:11.421Z,13.48
2022-09-12T00:17:13.546Z,13.44
2022-09-12T00:20:15.446Z,13.56
2022-09-12T00:23:18.124Z,13.68
2022-09-12T00:26:21.216Z,13.63
2022-09-12T00:29:24.174Z,13.61
2022-09-12T00:32:26.574Z,13.70
2022-09-12T00:35:28.878Z,13.71
2022-09-12T00:38:31.245Z,13.72
2022-09-12T00:41:37.545Z,13.61
2022-09-12T00:44:39.454Z,13.64
2022-09-12T00:47:42.161Z,13.67
2022-09-12T00:50:45.156Z,13.61
2022-09-12T00:53:49.225Z,13.57
2022-09-12T00:56:53.999Z,13.53
2022-09-12T01:00:00.227Z,13.39
2022-09-12T01:03:05.589Z,13.32
2022-09-12T01:06:21.662Z,13.12
2022-09-12T01:09:24.546Z,13.19
2022-09-12T01:12:27.353Z,13.09
2022-09-12T01:15:30.114Z,12.99
2022-09-12T01:18:50.739Z,12.87
2022-09-12T01:22:20.551Z,12.75
2022-09-12T01:25:32.375Z,12.75
2022-09-12T01:28:40.455Z,12.75
2022-09-12T01:32:02.492Z,12.67
2022-09-12T01:35:23.205Z,12.75
2022-09-12T01:38:38.214Z,12.78
2022-09-12T01:42:03.386Z,12.86
2022-09-12T01:45:10.652Z,12.82
2022-09-12T01:48:21.450Z,12.81
2022-09-12T01:51:26.455Z,12.89
2022-09-12T01:54:43.833Z,12.94
2022-09-12T01:57:59.221Z,12.96
2022-09-12T02:01:09.843Z,12.96
2022-09-12T02:04:21.864Z,12.92
2022-09-12T02:07:30.634Z,12.99
2022-09-12T02:10:42.638Z,12.96
2022-09-12T02:13:57.803Z,12.88
2022-09-12T02:17:06.287Z,12.79
2022-09-12T02:20:47.556Z,12.74
2022-09-12T02:23:55.576Z,12.74
2022-09-12T02:27:01.079Z,12.73
2022-09-12T02:30:03.128Z,12.78
2022-09-12T02:33:35.399Z,12.77
2022-09-12T02:37:13.629Z,12.72
2022-09-12T02:40:16.214Z,12.70
2022-09-12T02:43:18.475Z,12.71
2022-09-12T02:46:34.778Z,12.76
2022-09-12T02:49:37.392Z,12.74
2022-09-12T02:52:42.925Z,12.77
2022-09-12T02:55:47.395Z,12.78
2022-09-12T02:58:49.642Z,12.78
2022-09-12T03:02:00.828Z,12.75
2022-09-12T03:05:15.138Z,12.73
2022-09-12T03:08:36.006Z,12.77
2022-09-12T03:12:01.431Z,12.75
2022-09-12T03:15:11.189Z,12.81
2022-09-12T03:18:49.017Z,12.80
2022-09-12T03:22:20.070Z,12.75
2022-09-12T03:25:28.176Z,12.77
2022-09-12T03:28:31.673Z,12.79
2022-09-12T03:31:34.225Z,12.81
2022-09-12T03:34:35.994Z,12.82
2022-09-12T03:37:45.704Z,12.79
2022-09-12T03:40:51.365Z,12.78
2022-09-12T03:43:57.063Z,12.83
2022-09-12T03:47:01.647Z,12.88
2022-09-12T03:50:04.990Z,12.86
2022-09-12T03:53:16.550Z,12.83
2022-09-12T03:56:21.107Z,12.93
2022-09-12T03:59:23.074Z,12.86
2022-09-12T04:02:26.023Z,12.93
2022-09-12T04:05:30.461Z,12.87
2022-09-12T04:08:32.626Z,12.81
2022-09-12T04:11:37.250Z,12.78
2022-09-12T04:14:40.307Z,12.78
2022-09-12T04:17:42.612Z,12.62
2022-09-12T04:20:44.721Z,12.58
2022-09-12T04:23:48.181Z,12.63
2022-09-12T04:26:50.516Z,12.56
2022-09-12T04:29:54.336Z,12.58
2022-09-12T04:32:56.862Z,12.53
2022-09-12T04:36:07.243Z,12.53
2022-09-12T04:39:10.173Z,12.56
2022-09-12T04:42:16.904Z,12.58
2022-09-12T04:45:19.476Z,12.61
2022-09-12T04:48:22.310Z,12.69
2022-09-12T04:51:40.418Z,12.81
2022-09-12T04:54:45.866Z,13.06
2022-09-12T04:57:48.223Z,13.26
2022-09-12T05:00:53.224Z,13.46
2022-09-12T05:03:56.948Z,13.59
2022-09-12T05:07:00.788Z,13.45
2022-09-12T05:10:04.583Z,13.57
2022-09-12T05:13:07.517Z,13.49
2022-09-12T05:16:12.242Z,13.45
2022-09-12T05:19:15.153Z,13.56
2022-09-12T05:22:17.146Z,13.75
2022-09-12T05:25:19.006Z,13.83
2022-09-12T05:28:22.462Z,14.00
2022-09-12T05:31:26.320Z,13.84
2022-09-12T05:34:28.114Z,14.11
2022-09-12T05:37:31.584Z,14.10
2022-09-12T05:40:34.378Z,14.15
2022-09-12T05:43:44.557Z,14.26
2022-09-12T05:46:54.281Z,14.32
2022-09-12T05:49:59.888Z,14.36
2022-09-12T05:53:02.647Z,14.38
2022-09-12T05:56:08.843Z,14.52
2022-09-12T05:59:19.668Z,14.51
2022-09-12T06:02:22.239Z,14.38
2022-09-12T06:05:25.410Z,14.35
2022-09-12T06:08:28.176Z,14.34
2022-09-12T06:11:33.619Z,14.38
2022-09-12T06:14:36.435Z,14.20
2022-09-12T06:17:42.896Z,14.16
2022-09-12T06:20:44.854Z,14.18
2022-09-12T06:23:48.918Z,14.32
2022-09-12T06:26:52.965Z,14.46
2022-09-12T06:29:57.553Z,14.42
2022-09-12T06:32:59.862Z,14.36
2022-09-12T06:36:12.029Z,14.51
2022-09-12T06:39:20.494Z,14.52
2022-09-12T06:42:33.071Z,14.79
2022-09-12T06:45:35.134Z,15.14
2022-09-12T06:48:41.796Z,15.49
2022-09-12T06:51:44.837Z,15.43
2022-09-12T06:54:47.641Z,15.45
2022-09-12T06:57:49.677Z,15.52
2022-09-12T07:00:57.211Z,16.10
2022-09-12T07:04:03.697Z,15.93
2022-09-12T07:07:05.987Z,16.21
2022-09-12T07:10:08.642Z,16.68
2022-09-12T07:13:14.033Z,16.59
2022-09-12T07:16:19.727Z,16.69
2022-09-12T07:19:25.166Z,16.51
2022-09-12T07:22:28.000Z,16.57
2022-09-12T07:25:29.975Z,16.76
2022-09-12T07:28:34.099Z,16.97
2022-09-12T07:31:37.000Z,16.53
2022-09-12T07:34:38.945Z,17.04
2022-09-12T07:37:41.899Z,17.19
2022-09-12T07:40:44.092Z,16.78
2022-09-12T07:43:46.807Z,16.66
2022-09-12T07:46:48.969Z,16.90
2022-09-12T07:49:50.891Z,16.82
2022-09-12T07:52:56.077Z,16.91
2022-09-12T07:55:58.078Z,17.52
2022-09-12T07:59:02.980Z,16.95
2022-09-12T08:02:05.648Z,17.30
2022-09-12T08:05:08.924Z,16.89
2022-09-12T08:08:11.563Z,17.18
2022-09-12T08:11:30.517Z,16.96
2022-09-12T08:14:33.206Z,17.56
2022-09-12T08:17:35.518Z,17.82
2022-09-12T08:20:38.156Z,17.74
2022-09-12T08:23:40.281Z,17.72
2022-09-12T08:26:43.685Z,17.86
2022-09-12T08:29:45.476Z,17.68
2022-09-12T08:32:47.710Z,17.68
2022-09-12T08:35:50.209Z,17.18
2022-09-12T08:38:59.967Z,16.96
2022-09-12T08:42:05.034Z,16.79
2022-09-12T08:45:43.716Z,16.52
2022-09-12T08:48:47.515Z,17.17
2022-09-12T08:51:51.375Z,17.71
2022-09-12T08:54:55.308Z,18.02
2022-09-12T08:58:00.887Z,17.54
2022-09-12T09:01:12.757Z,18.23
2022-09-12T09:04:36.604Z,18.44
2022-09-12T09:08:22.212Z,17.54
2022-09-12T09:11:42.223Z,17.59
2022-09-12T09:15:10.466Z,17.54
2022-09-12T09:18:24.555Z,17.20
2022-09-12T09:21:31.834Z,17.51
2022-09-12T09:24:39.328Z,17.82
2022-09-12T09:27:52.441Z,17.42
2022-09-12T09:30:54.894Z,17.21
2022-09-12T09:34:00.731Z,17.23
2022-09-12T09:37:06.596Z,17.09
2022-09-12T09:40:24.843Z,17.25
2022-09-12T09:43:30.521Z,17.64
2022-09-12T09:46:33.919Z,18.01
2022-09-12T09:49:36.532Z,18.24
2022-09-12T09:52:39.727Z,18.41
2022-09-12T09:55:44.729Z,18.27
2022-09-12T09:58:47.565Z,18.84
2022-09-12T10:01:53.034Z,18.84
2022-09-12T10:04:57.721Z,18.73
2022-09-12T10:08:09.927Z,18.68
2022-09-12T10:11:28.991Z,18.53
2022-09-12T10:14:35.790Z,18.65
2022-09-12T10:17:44.220Z,18.08
2022-09-12T10:20:46.524Z,18.63
2022-09-12T10:24:00.274Z,18.46
2022-09-12T10:27:14.483Z,18.66
2022-09-12T10:30:19.975Z,18.34
2022-09-12T10:33:24.871Z,18.29
2022-09-12T10:36:39.797Z,18.41
2022-09-12T10:39:41.854Z,18.20
2022-09-12T10:42:51.123Z,18.53
2022-09-12T10:45:58.230Z,18.51
2022-09-12T10:49:13.964Z,18.42
2022-09-12T10:52:24.259Z,18.72
2022-09-12T10:55:32.543Z,18.38
2022-09-12T10:59:07.149Z,18.67
2022-09-12T11:02:20.461Z,18.92
2022-09-12T11:05:26.394Z,18.93
2022-09-12T11:08:28.643Z,18.65
2022-09-12T11:11:42.747Z,18.93
2022-09-12T11:15:11.232Z,19.17
2022-09-12T11:18:30.285Z,18.41
2022-09-12T11:21:32.131Z,18.74
2022-09-12T11:24:40.266Z,18.21
2022-09-12T11:28:00.748Z,17.95
2022-09-12T11:31:18.967Z,17.85
2022-09-12T11:34:55.360Z,18.05
2022-09-12T11:38:07.664Z,18.35
2022-09-12T11:41:31.512Z,19.00
2022-09-12T11:44:40.469Z,19.28
2022-09-12T11:47:49.131Z,19.32
2022-09-12T11:50:52.484Z,18.92
2022-09-12T11:54:30.686Z,18.86
2022-09-12T11:57:54.804Z,19.20
2022-09-12T12:01:03.736Z,18.42
2022-09-12T12:04:13.544Z,18.37
2022-09-12T12:07:19.655Z,18.70
2022-09-12T12:10:43.890Z,18.67
2022-09-12T12:13:53.776Z,19.08
2022-09-12T12:16:55.808Z,19.23
2022-09-12T12:20:07.458Z,19.17
2022-09-12T12:23:30.937Z,19.17
2022-09-12T12:26:42.975Z,19.20
2022-09-12T12:29:45.608Z,19.41
2022-09-12T12:32:47.787Z,19.19
2022-09-12T12:36:09.403Z,19.12
2022-09-12T12:39:51.312Z,18.74
2022-09-12T12:42:59.515Z,18.23
2022-09-12T12:46:05.574Z,18.99
2022-09-12T12:49:27.120Z,19.24
2022-09-12T12:52:31.574Z,18.68
2022-09-12T12:55:42.856Z,18.16
2022-09-12T12:58:46.607Z,18.40
2022-09-12T13:01:55.413Z,18.11
2022-09-12T13:04:59.849Z,17.88
2022-09-12T13:08:08.492Z,18.19
2022-09-12T13:11:30.642Z,17.96
2022-09-12T13:14:55.813Z,18.21
2022-09-12T13:18:33.421Z,18.64
2022-09-12T13:21:35.364Z,18.62
2022-09-12T13:24:45.474Z,18.91
2022-09-12T13:28:13.121Z,18.98
2022-09-12T13:31:15.518Z,19.14
2022-09-12T13:34:25.591Z,19.25
2022-09-12T13:37:39.287Z,19.05
2022-09-12T13:40:57.033Z,19.00
2022-09-12T13:43:58.890Z,18.75
2022-09-12T13:47:02.238Z,19.29
2022-09-12T13:50:06.371Z,19.48
2022-09-12T13:53:14.430Z,19.28
2022-09-12T13:56:21.113Z,19.41
2022-09-12T13:59:22.956Z,19.24
2022-09-12T14:02:29.526Z,19.64
2022-09-12T14:05:38.373Z,19.45
2022-09-12T14:08:43.519Z,19.79
2022-09-12T14:11:46.509Z,19.92
2022-09-12T14:14:50.516Z,19.61
2022-09-12T14:17:55.143Z,19.03
2022-09-12T14:21:02.878Z,18.89
2022-09-12T14:24:07.291Z,19.32
2022-09-12T14:27:10.496Z,19.23
2022-09-12T14:30:27.852Z,19.04
2022-09-12T14:33:49.127Z,18.79
2022-09-12T14:36:53.180Z,18.58
2022-09-12T14:39:55.275Z,18.62
2022-09-12T14:43:01.200Z,18.60
2022-09-12T14:46:22.140Z,18.86
2022-09-12T14:49:32.061Z,19.19
2022-09-12T14:52:35.288Z,19.21
2022-09-12T14:55:45.105Z,19.03
2022-09-12T14:58:47.498Z,18.75
2022-09-12T15:01:49.669Z,18.86
2022-09-12T15:04:54.649Z,18.82
2022-09-12T15:08:03.432Z,18.75
2022-09-12T15:11:07.094Z,18.75
2022-09-12T15:14:15.662Z,18.68
2022-09-12T15:17:17.839Z,18.68
2022-09-12T15:20:20.434Z,18.75
2022-09-12T15:23:35.762Z,18.71
2022-09-12T15:26:38.283Z,18.94
2022-09-12T15:29:40.730Z,18.84
2022-09-12T15:32:43.979Z,18.46
2022-09-12T15:35:47.090Z,18.54
2022-09-12T15:38:50.196Z,18.52
2022-09-12T15:41:52.575Z,18.52
2022-09-12T15:44:59.415Z,18.29
2022-09-12T15:48:04.505Z,18.29
2022-09-12T15:51:15.264Z,18.18
2022-09-12T15:54:18.610Z,18.10
2022-09-12T15:57:21.465Z,17.91
2022-09-12T16:00:24.131Z,17.79
2022-09-12T16:03:28.361Z,17.86
2022-09-12T16:06:36.785Z,17.78
2022-09-12T16:09:39.830Z,17.87
2022-09-12T16:12:44.278Z,17.92
2022-09-12T16:15:47.691Z,17.91
2022-09-12T16:18:49.891Z,17.89
2022-09-12T16:21:51.735Z,17.80
2022-09-12T16:24:54.533Z,17.69
2022-09-12T16:27:57.036Z,17.51
2022-09-12T16:31:01.491Z,17.39
2022-09-12T16:34:04.258Z,17.26
2022-09-12T16:37:06.918Z,17.22
2022-09-12T16:40:10.129Z,17.15
2022-09-12T16:43:12.740Z,17.18
2022-09-12T16:46:16.167Z,16.97
2022-09-12T16:49:18.121Z,16.71
2022-09-12T16:52:21.010Z,16.43
2022-09-12T16:55:22.977Z,16.19
2022-09-12T16:58:25.650Z,15.97
2022-09-12T17:01:28.084Z,15.73
2022-09-12T17:04:30.562Z,15.61
2022-09-12T17:07:34.629Z,15.53
2022-09-12T17:10:42.075Z,15.42
2022-09-12T17:14:10.714Z,15.16
2022-09-12T17:17:13.964Z,15.14
2022-09-12T17:20:16.361Z,14.96
2022-09-12T17:23:19.325Z,14.88
2022-09-12T17:26:21.657Z,14.80
2022-09-12T17:29:30.577Z,14.72
2022-09-12T17:32:33.890Z,14.57
2022-09-12T17:35:37.793Z,14.46
2022-09-12T17:38:40.405Z,14.32
2022-09-12T17:41:43.323Z,14.26
2022-09-12T17:44:45.841Z,14.21
2022-09-12T17:47:48.757Z,14.24
2022-09-12T17:50:51.046Z,14.19
2022-09-12T17:53:59.248Z,14.12
2022-09-12T17:57:01.440Z,14.14
2022-09-12T18:00:05.141Z,14.14
2022-09-12T18:03:14.732Z,14.11
2022-09-12T18:06:17.228Z,14.08
2022-09-12T18:09:22.769Z,14.11
2022-09-12T18:12:25.501Z,14.11
2022-09-12T18:15:27.448Z,14.03
2022-09-12T18:18:30.059Z,13.90
2022-09-12T18:21:32.331Z,13.87
2022-09-12T18:24:34.977Z,13.82
2022-09-12T18:27:37.236Z,13.82
2022-09-12T18:30:41.415Z,13.79
2022-09-12T18:33:45.009Z,13.68
2022-09-12T18:36:50.258Z,13.72
2022-09-12T18:39:52.301Z,13.65
2022-09-12T18:42:54.357Z,13.55
2022-09-12T18:45:56.947Z,13.51
2022-09-12T18:49:00.109Z,13.55
2022-09-12T18:52:03.046Z,13.50
2022-09-12T18:55:05.566Z,13.53
2022-09-12T18:58:07.887Z,13.48
2022-09-12T19:01:15.697Z,13.53
2022-09-12T19:04:18.791Z,13.55
2022-09-12T19:07:21.138Z,13.59
2022-09-12T19:10:23.243Z,13.54
2022-09-12T19:13:25.672Z,13.36
2022-09-12T19:16:29.075Z,13.32
2022-09-12T19:19:31.630Z,13.30
2022-09-12T19:22:34.003Z,13.23
2022-09-12T19:25:36.497Z,13.33
2022-09-12T19:28:39.798Z,13.31
2022-09-12T19:31:43.075Z,13.23
2022-09-12T19:34:45.647Z,13.27
2022-09-12T19:37:47.814Z,13.20
2022-09-12T19:41:00.342Z,13.08
2022-09-12T19:44:04.473Z,13.09
2022-09-12T19:47:06.944Z,13.16
2022-09-12T19:50:11.377Z,13.15
2022-09-12T19:53:13.651Z,13.17
2022-09-12T19:56:16.475Z,13.15
2022-09-12T19:59:18.920Z,13.07
2022-09-12T20:02:20.876Z,13.09
2022-09-12T20:05:23.589Z,13.15
2022-09-12T20:08:25.634Z,13.06
2022-09-12T20:11:27.642Z,13.15
2022-09-12T20:14:30.829Z,13.16
2022-09-12T20:17:32.745Z,13.04
2022-09-12T20:20:35.153Z,12.89
2022-09-12T20:23:37.380Z,12.82
2022-09-12T20:26:40.482Z,12.72
2022-09-12T20:29:42.961Z,12.72
2022-09-12T20:32:45.189Z,12.67
2022-09-12T20:35:47.408Z,12.68
2022-09-12T20:39:01.493Z,12.63
2022-09-12T20:42:03.562Z,12.62
2022-09-12T20:45:06.648Z,12.61
2022-09-12T20:48:08.773Z,12.59
2022-09-12T20:51:10.690Z,12.49
2022-09-12T20:54:13.025Z,12.51
2022-09-12T20:57:14.928Z,12.53
2022-09-12T21:00:17.600Z,12.57
2022-09-12T21:03:22.074Z,12.62
2022-09-12T21:06:24.295Z,12.56
2022-09-12T21:09:26.534Z,12.57
2022-09-12T21:12:29.217Z,12.57
2022-09-12T21:15:32.108Z,12.63
2022-09-12T21:18:34.818Z,12.62
2022-09-12T21:21:36.994Z,12.58
2022-09-12T21:24:38.996Z,12.57
2022-09-12T21:27:40.846Z,12.57
2022-09-12T21:30:44.308Z,12.56
2022-09-12T21:33:46.566Z,12.54
2022-09-12T21:36:48.513Z,12.53
2022-09-12T21:39:50.650Z,12.56
2022-09-12T21:42:52.614Z,12.53
2022-09-12T21:45:59.318Z,12.40
2022-09-12T21:49:01.273Z,12.30
2022-09-12T21:52:04.175Z,12.33
2022-09-12T21:55:07.515Z,12.35
2022-09-12T21:58:11.053Z,12.30
2022-09-12T22:01:13.198Z,12.39
2022-09-12T22:04:15.157Z,12.34
2022-09-12T22:07:17.325Z,12.35
2022-09-12T22:10:19.289Z,12.28
2022-09-12T22:13:21.894Z,12.33
2022-09-12T22:16:24.263Z,12.27
2022-09-12T22:19:26.819Z,12.16
2022-09-12T22:22:47.327Z,12.18
2022-09-12T22:25:49.141Z,12.23
2022-09-12T22:28:51.716Z,12.21
2022-09-12T22:31:53.838Z,12.05
2022-09-12T22:34:55.813Z,12.00
2022-09-12T22:37:58.079Z,11.84
2022-09-12T22:41:03.737Z,11.88
2022-09-12T22:44:06.586Z,11.89
2022-09-12T22:47:08.455Z,11.90
2022-09-12T22:50:10.339Z,11.87
2022-09-12T22:53:12.203Z,11.78
2022-09-12T22:56:13.969Z,11.68
2022-09-12T22:59:16.505Z,11.61
2022-09-12T23:02:18.561Z,11.65
2022-09-12T23:05:20.563Z,11.64
2022-09-12T23:08:22.552Z,11.64
2022-09-12T23:11:24.664Z,11.65
2022-09-12T23:14:27.045Z,11.52
2022-09-12T23:17:28.795Z,11.62
2022-09-12T23:20:30.577Z,11.49
2022-09-12T23:23:33.302Z,11.37
2022-09-12T23:26:35.092Z,11.30
2022-09-12T23:29:36.976Z,11.05
2022-09-12T23:32:38.977Z,11.07
2022-09-12T23:35:40.848Z,10.94
2022-09-12T23:38:45.138Z,10.82
2022-09-12T23:41:47.086Z,10.89
2022-09-12T23:44:48.999Z,10.92
2022-09-12T23:47:51.143Z,10.88
2022-09-12T23:50:53.604Z,10.85
2022-09-12T23:53:56.113Z,10.80
2022-09-12T23:56:57.838Z,10.75
2022-09-12T23:59:59.553Z,10.78
